sensor_id;sensor_type;location;lat;lon;timestamp;P1;durP1;ratioP1;P2;durP2;ratioP2
10987;SDS011;5547;42.672;23.230;2023-06-22T00:01:06;17.13;;;15.27;;
10987;SDS011;5547;42.672;23.230;2023-06-22T00:04:07;16.77;;;14.97;;
10987;SDS011;5547;42.672;23.230;2023-06-22T00:07:08;17.23;;;14.50;;
10987;SDS011;5547;42.672;23.230;2023-06-22T00:10:08;16.02;;;14.07;;
10987;SDS011;5547;42.672;23.230;2023-06-22T00:13:09;16.80;;;15.10;;
10987;SDS011;5547;42.672;23.230;2023-06-22T00:16:10;18.33;;;15.70;;
10987;SDS011;5547;42.672;23.230;2023-06-22T00:19:10;19.07;;;16.47;;
10987;SDS011;5547;42.672;23.230;2023-06-22T00:22:11;17.35;;;15.48;;
10987;SDS011;5547;42.672;23.230;2023-06-22T00:25:12;19.23;;;16.40;;
10987;SDS011;5547;42.672;23.230;2023-06-22T00:28:12;20.27;;;17.67;;
10987;SDS011;5547;42.672;23.230;2023-06-22T00:31:13;19.63;;;17.53;;
10987;SDS011;5547;42.672;23.230;2023-06-22T00:34:13;21.73;;;18.70;;
10987;SDS011;5547;42.672;23.230;2023-06-22T00:37:15;22.27;;;18.93;;
10987;SDS011;5547;42.672;23.230;2023-06-22T00:40:16;23.13;;;19.95;;
10987;SDS011;5547;42.672;23.230;2023-06-22T00:43:21;22.73;;;20.20;;
10987;SDS011;5547;42.672;23.230;2023-06-22T00:46:22;24.33;;;19.23;;
10987;SDS011;5547;42.672;23.230;2023-06-22T00:49:23;23.02;;;18.90;;
10987;SDS011;5547;42.672;23.230;2023-06-22T00:52:23;22.30;;;18.10;;
10987;SDS011;5547;42.672;23.230;2023-06-22T00:55:29;21.15;;;17.98;;
10987;SDS011;5547;42.672;23.230;2023-06-22T00:58:29;22.93;;;19.07;;
10987;SDS011;5547;42.672;23.230;2023-06-22T01:01:30;22.75;;;18.77;;
10987;SDS011;5547;42.672;23.230;2023-06-22T01:04:34;18.90;;;16.90;;
10987;SDS011;5547;42.672;23.230;2023-06-22T01:07:38;19.35;;;17.00;;
10987;SDS011;5547;42.672;23.230;2023-06-22T01:10:45;19.53;;;16.10;;
10987;SDS011;5547;42.672;23.230;2023-06-22T01:16:59;17.33;;;14.73;;
10987;SDS011;5547;42.672;23.230;2023-06-22T01:20:01;16.25;;;13.77;;
10987;SDS011;5547;42.672;23.230;2023-06-22T01:26:18;15.27;;;13.77;;
10987;SDS011;5547;42.672;23.230;2023-06-22T01:29:19;15.52;;;13.10;;
10987;SDS011;5547;42.672;23.230;2023-06-22T01:32:21;15.23;;;12.52;;
10987;SDS011;5547;42.672;23.230;2023-06-22T01:35:21;14.33;;;12.83;;
10987;SDS011;5547;42.672;23.230;2023-06-22T01:38:23;14.52;;;12.02;;
10987;SDS011;5547;42.672;23.230;2023-06-22T01:41:25;13.63;;;11.77;;
10987;SDS011;5547;42.672;23.230;2023-06-22T01:44:27;14.55;;;12.07;;
10987;SDS011;5547;42.672;23.230;2023-06-22T01:47:28;12.70;;;11.40;;
10987;SDS011;5547;42.672;23.230;2023-06-22T01:50:29;13.07;;;11.55;;
10987;SDS011;5547;42.672;23.230;2023-06-22T01:53:30;13.80;;;12.30;;
10987;SDS011;5547;42.672;23.230;2023-06-22T01:56:30;12.02;;;10.75;;
10987;SDS011;5547;42.672;23.230;2023-06-22T02:02:43;13.70;;;10.45;;
10987;SDS011;5547;42.672;23.230;2023-06-22T02:05:52;12.80;;;11.40;;
10987;SDS011;5547;42.672;23.230;2023-06-22T02:08:57;13.40;;;12.00;;
10987;SDS011;5547;42.672;23.230;2023-06-22T02:12:01;13.82;;;12.32;;
10987;SDS011;5547;42.672;23.230;2023-06-22T02:15:03;13.40;;;11.48;;
10987;SDS011;5547;42.672;23.230;2023-06-22T02:18:05;13.15;;;11.82;;
10987;SDS011;5547;42.672;23.230;2023-06-22T02:21:06;13.90;;;12.00;;
10987;SDS011;5547;42.672;23.230;2023-06-22T02:24:06;14.23;;;12.47;;
10987;SDS011;5547;42.672;23.230;2023-06-22T02:27:07;14.10;;;12.55;;
10987;SDS011;5547;42.672;23.230;2023-06-22T02:30:08;14.32;;;11.80;;
10987;SDS011;5547;42.672;23.230;2023-06-22T02:33:11;14.47;;;12.60;;
10987;SDS011;5547;42.672;23.230;2023-06-22T02:36:12;13.30;;;11.70;;
10987;SDS011;5547;42.672;23.230;2023-06-22T02:39:13;13.77;;;12.27;;
10987;SDS011;5547;42.672;23.230;2023-06-22T02:42:13;14.83;;;12.77;;
10987;SDS011;5547;42.672;23.230;2023-06-22T02:45:14;15.15;;;12.77;;
10987;SDS011;5547;42.672;23.230;2023-06-22T02:48:14;14.23;;;11.37;;
10987;SDS011;5547;42.672;23.230;2023-06-22T02:51:15;13.73;;;12.23;;
10987;SDS011;5547;42.672;23.230;2023-06-22T02:54:15;13.67;;;11.83;;
10987;SDS011;5547;42.672;23.230;2023-06-22T02:57:16;13.25;;;11.63;;
10987;SDS011;5547;42.672;23.230;2023-06-22T03:00:16;13.87;;;12.13;;
10987;SDS011;5547;42.672;23.230;2023-06-22T03:03:17;13.85;;;12.07;;
10987;SDS011;5547;42.672;23.230;2023-06-22T03:06:17;13.93;;;12.27;;
10987;SDS011;5547;42.672;23.230;2023-06-22T03:09:23;12.35;;;11.05;;
10987;SDS011;5547;42.672;23.230;2023-06-22T03:12:23;14.30;;;12.13;;
10987;SDS011;5547;42.672;23.230;2023-06-22T03:15:24;14.03;;;12.07;;
10987;SDS011;5547;42.672;23.230;2023-06-22T03:18:25;12.80;;;11.40;;
10987;SDS011;5547;42.672;23.230;2023-06-22T03:21:27;13.30;;;11.90;;
10987;SDS011;5547;42.672;23.230;2023-06-22T03:24:28;13.32;;;11.90;;
10987;SDS011;5547;42.672;23.230;2023-06-22T03:27:29;14.45;;;12.20;;
10987;SDS011;5547;42.672;23.230;2023-06-22T03:30:30;12.88;;;11.45;;
10987;SDS011;5547;42.672;23.230;2023-06-22T03:33:30;12.37;;;11.07;;
10987;SDS011;5547;42.672;23.230;2023-06-22T03:36:31;12.10;;;10.90;;
10987;SDS011;5547;42.672;23.230;2023-06-22T03:39:31;12.07;;;10.87;;
10987;SDS011;5547;42.672;23.230;2023-06-22T03:42:33;11.38;;;10.00;;
10987;SDS011;5547;42.672;23.230;2023-06-22T03:45:35;12.35;;;10.27;;
10987;SDS011;5547;42.672;23.230;2023-06-22T03:48:36;10.93;;;9.83;;
10987;SDS011;5547;42.672;23.230;2023-06-22T03:51:36;10.97;;;9.87;;
10987;SDS011;5547;42.672;23.230;2023-06-22T03:54:37;10.63;;;9.53;;
10987;SDS011;5547;42.672;23.230;2023-06-22T03:57:37;10.80;;;9.13;;
10987;SDS011;5547;42.672;23.230;2023-06-22T04:00:37;10.60;;;9.30;;
10987;SDS011;5547;42.672;23.230;2023-06-22T04:03:38;9.35;;;8.35;;
10987;SDS011;5547;42.672;23.230;2023-06-22T04:06:39;9.87;;;8.60;;
10987;SDS011;5547;42.672;23.230;2023-06-22T04:09:39;10.53;;;8.90;;
10987;SDS011;5547;42.672;23.230;2023-06-22T04:12:40;11.70;;;9.40;;
10987;SDS011;5547;42.672;23.230;2023-06-22T04:15:40;11.17;;;9.97;;
10987;SDS011;5547;42.672;23.230;2023-06-22T04:18:40;11.30;;;10.17;;
10987;SDS011;5547;42.672;23.230;2023-06-22T04:21:42;11.23;;;10.03;;
10987;SDS011;5547;42.672;23.230;2023-06-22T04:24:44;11.52;;;8.95;;
10987;SDS011;5547;42.672;23.230;2023-06-22T04:27:45;10.18;;;9.07;;
10987;SDS011;5547;42.672;23.230;2023-06-22T04:30:46;11.18;;;9.60;;
10987;SDS011;5547;42.672;23.230;2023-06-22T04:33:46;10.10;;;8.83;;
10987;SDS011;5547;42.672;23.230;2023-06-22T04:36:47;11.50;;;9.90;;
10987;SDS011;5547;42.672;23.230;2023-06-22T04:39:47;12.33;;;10.63;;
10987;SDS011;5547;42.672;23.230;2023-06-22T04:42:47;13.63;;;10.37;;
10987;SDS011;5547;42.672;23.230;2023-06-22T04:45:53;13.47;;;11.90;;
10987;SDS011;5547;42.672;23.230;2023-06-22T04:48:53;13.00;;;11.70;;
10987;SDS011;5547;42.672;23.230;2023-06-22T04:51:54;12.43;;;10.70;;
10987;SDS011;5547;42.672;23.230;2023-06-22T04:54:55;9.15;;;8.25;;
10987;SDS011;5547;42.672;23.230;2023-06-22T04:57:57;10.47;;;8.03;;
10987;SDS011;5547;42.672;23.230;2023-06-22T05:01:04;9.20;;;8.30;;
10987;SDS011;5547;42.672;23.230;2023-06-22T05:04:05;11.48;;;8.57;;
10987;SDS011;5547;42.672;23.230;2023-06-22T05:07:06;10.00;;;8.50;;
10987;SDS011;5547;42.672;23.230;2023-06-22T05:10:07;10.73;;;9.70;;
10987;SDS011;5547;42.672;23.230;2023-06-22T05:13:08;11.77;;;10.50;;
10987;SDS011;5547;42.672;23.230;2023-06-22T05:16:08;12.87;;;10.37;;
10987;SDS011;5547;42.672;23.230;2023-06-22T05:19:08;11.13;;;9.93;;
10987;SDS011;5547;42.672;23.230;2023-06-22T05:22:09;11.30;;;10.00;;
10987;SDS011;5547;42.672;23.230;2023-06-22T05:25:12;12.95;;;9.88;;
10987;SDS011;5547;42.672;23.230;2023-06-22T05:28:13;10.63;;;9.45;;
10987;SDS011;5547;42.672;23.230;2023-06-22T05:31:14;12.50;;;9.03;;
10987;SDS011;5547;42.672;23.230;2023-06-22T05:34:15;10.80;;;9.50;;
10987;SDS011;5547;42.672;23.230;2023-06-22T05:37:15;12.20;;;9.70;;
10987;SDS011;5547;42.672;23.230;2023-06-22T05:40:15;13.17;;;11.20;;
10987;SDS011;5547;42.672;23.230;2023-06-22T05:43:16;16.77;;;10.20;;
10987;SDS011;5547;42.672;23.230;2023-06-22T05:46:16;14.23;;;10.40;;
10987;SDS011;5547;42.672;23.230;2023-06-22T05:49:17;12.43;;;10.60;;
10987;SDS011;5547;42.672;23.230;2023-06-22T05:52:17;12.63;;;10.23;;
10987;SDS011;5547;42.672;23.230;2023-06-22T05:55:18;10.87;;;9.63;;
10987;SDS011;5547;42.672;23.230;2023-06-22T05:58:18;12.38;;;10.73;;
10987;SDS011;5547;42.672;23.230;2023-06-22T06:01:19;14.73;;;11.60;;
10987;SDS011;5547;42.672;23.230;2023-06-22T06:04:20;13.45;;;11.50;;
10987;SDS011;5547;42.672;23.230;2023-06-22T06:07:21;13.63;;;11.47;;
10987;SDS011;5547;42.672;23.230;2023-06-22T06:10:21;12.57;;;11.07;;
10987;SDS011;5547;42.672;23.230;2023-06-22T06:13:22;12.73;;;10.35;;
10987;SDS011;5547;42.672;23.230;2023-06-22T06:16:23;13.93;;;11.53;;
10987;SDS011;5547;42.672;23.230;2023-06-22T06:19:23;14.03;;;11.40;;
10987;SDS011;5547;42.672;23.230;2023-06-22T06:22:24;12.60;;;10.90;;
10987;SDS011;5547;42.672;23.230;2023-06-22T06:25:25;14.00;;;10.70;;
10987;SDS011;5547;42.672;23.230;2023-06-22T06:28:25;13.27;;;10.65;;
10987;SDS011;5547;42.672;23.230;2023-06-22T06:31:26;12.18;;;10.88;;
10987;SDS011;5547;42.672;23.230;2023-06-22T06:34:30;13.10;;;10.68;;
10987;SDS011;5547;42.672;23.230;2023-06-22T06:37:30;11.93;;;10.70;;
10987;SDS011;5547;42.672;23.230;2023-06-22T06:40:31;13.70;;;10.63;;
10987;SDS011;5547;42.672;23.230;2023-06-22T06:43:31;12.40;;;10.90;;
10987;SDS011;5547;42.672;23.230;2023-06-22T06:46:32;12.37;;;10.20;;
10987;SDS011;5547;42.672;23.230;2023-06-22T06:49:33;12.00;;;10.67;;
10987;SDS011;5547;42.672;23.230;2023-06-22T06:52:33;12.35;;;10.98;;
10987;SDS011;5547;42.672;23.230;2023-06-22T06:55:34;11.93;;;10.57;;
10987;SDS011;5547;42.672;23.230;2023-06-22T06:58:34;13.68;;;10.48;;
10987;SDS011;5547;42.672;23.230;2023-06-22T07:01:35;10.25;;;9.15;;
10987;SDS011;5547;42.672;23.230;2023-06-22T07:04:35;10.27;;;9.23;;
10987;SDS011;5547;42.672;23.230;2023-06-22T07:07:36;10.17;;;9.07;;
10987;SDS011;5547;42.672;23.230;2023-06-22T07:10:37;10.38;;;9.30;;
10987;SDS011;5547;42.672;23.230;2023-06-22T07:13:37;11.83;;;10.63;;
10987;SDS011;5547;42.672;23.230;2023-06-22T07:16:38;11.80;;;10.48;;
10987;SDS011;5547;42.672;23.230;2023-06-22T07:19:38;11.38;;;10.27;;
10987;SDS011;5547;42.672;23.230;2023-06-22T07:22:41;11.75;;;10.57;;
10987;SDS011;5547;42.672;23.230;2023-06-22T07:25:42;10.70;;;9.60;;
10987;SDS011;5547;42.672;23.230;2023-06-22T07:28:42;12.50;;;10.73;;
10987;SDS011;5547;42.672;23.230;2023-06-22T07:31:43;13.10;;;10.77;;
10987;SDS011;5547;42.672;23.230;2023-06-22T07:34:44;15.43;;;11.88;;
10987;SDS011;5547;42.672;23.230;2023-06-22T07:37:45;12.88;;;10.93;;
10987;SDS011;5547;42.672;23.230;2023-06-22T07:40:45;15.02;;;10.48;;
10987;SDS011;5547;42.672;23.230;2023-06-22T07:43:46;14.45;;;11.63;;
10987;SDS011;5547;42.672;23.230;2023-06-22T07:46:46;13.15;;;11.70;;
10987;SDS011;5547;42.672;23.230;2023-06-22T07:49:47;12.80;;;11.60;;
10987;SDS011;5547;42.672;23.230;2023-06-22T07:52:47;12.87;;;11.50;;
10987;SDS011;5547;42.672;23.230;2023-06-22T07:55:48;12.90;;;11.57;;
10987;SDS011;5547;42.672;23.230;2023-06-22T07:58:49;12.98;;;11.73;;
10987;SDS011;5547;42.672;23.230;2023-06-22T08:01:49;13.00;;;11.70;;
10987;SDS011;5547;42.672;23.230;2023-06-22T08:04:49;12.95;;;11.65;;
10987;SDS011;5547;42.672;23.230;2023-06-22T08:07:50;12.65;;;11.35;;
10987;SDS011;5547;42.672;23.230;2023-06-22T08:10:50;13.18;;;11.88;;
10987;SDS011;5547;42.672;23.230;2023-06-22T08:13:51;12.65;;;11.18;;
10987;SDS011;5547;42.672;23.230;2023-06-22T08:16:52;12.70;;;11.40;;
10987;SDS011;5547;42.672;23.230;2023-06-22T08:19:52;12.63;;;11.33;;
10987;SDS011;5547;42.672;23.230;2023-06-22T08:22:53;13.47;;;11.60;;
10987;SDS011;5547;42.672;23.230;2023-06-22T08:25:54;12.20;;;11.00;;
10987;SDS011;5547;42.672;23.230;2023-06-22T08:28:55;12.80;;;11.50;;
10987;SDS011;5547;42.672;23.230;2023-06-22T08:31:55;12.75;;;11.48;;
10987;SDS011;5547;42.672;23.230;2023-06-22T08:34:56;12.27;;;10.97;;
10987;SDS011;5547;42.672;23.230;2023-06-22T08:37:57;13.17;;;10.90;;
10987;SDS011;5547;42.672;23.230;2023-06-22T08:40:58;11.68;;;10.57;;
10987;SDS011;5547;42.672;23.230;2023-06-22T08:43:58;12.00;;;10.80;;
10987;SDS011;5547;42.672;23.230;2023-06-22T08:46:59;11.20;;;10.10;;
10987;SDS011;5547;42.672;23.230;2023-06-22T08:49:59;11.50;;;10.30;;
10987;SDS011;5547;42.672;23.230;2023-06-22T08:53:02;11.10;;;9.95;;
10987;SDS011;5547;42.672;23.230;2023-06-22T08:56:03;10.87;;;9.40;;
10987;SDS011;5547;42.672;23.230;2023-06-22T08:59:03;10.80;;;9.57;;
10987;SDS011;5547;42.672;23.230;2023-06-22T09:02:04;10.73;;;9.73;;
10987;SDS011;5547;42.672;23.230;2023-06-22T09:05:04;7.87;;;7.07;;
10987;SDS011;5547;42.672;23.230;2023-06-22T09:08:05;8.35;;;7.55;;
10987;SDS011;5547;42.672;23.230;2023-06-22T09:11:06;8.03;;;7.23;;
10987;SDS011;5547;42.672;23.230;2023-06-22T09:14:06;9.00;;;8.10;;
10987;SDS011;5547;42.672;23.230;2023-06-22T09:17:07;8.63;;;7.73;;
10987;SDS011;5547;42.672;23.230;2023-06-22T09:20:07;8.60;;;7.40;;
10987;SDS011;5547;42.672;23.230;2023-06-22T09:23:10;8.50;;;7.65;;
10987;SDS011;5547;42.672;23.230;2023-06-22T09:26:11;9.07;;;8.17;;
10987;SDS011;5547;42.672;23.230;2023-06-22T09:29:11;8.70;;;7.30;;
10987;SDS011;5547;42.672;23.230;2023-06-22T09:32:12;8.27;;;7.43;;
10987;SDS011;5547;42.672;23.230;2023-06-22T09:35:12;8.53;;;7.73;;
10987;SDS011;5547;42.672;23.230;2023-06-22T09:38:13;8.88;;;8.02;;
10987;SDS011;5547;42.672;23.230;2023-06-22T09:41:13;9.87;;;8.53;;
10987;SDS011;5547;42.672;23.230;2023-06-22T09:44:14;9.30;;;8.20;;
10987;SDS011;5547;42.672;23.230;2023-06-22T09:47:14;9.43;;;8.30;;
10987;SDS011;5547;42.672;23.230;2023-06-22T09:50:15;10.15;;;9.15;;
10987;SDS011;5547;42.672;23.230;2023-06-22T09:53:16;10.45;;;9.38;;
10987;SDS011;5547;42.672;23.230;2023-06-22T09:56:16;10.60;;;9.50;;
10987;SDS011;5547;42.672;23.230;2023-06-22T09:59:17;10.70;;;9.60;;
10987;SDS011;5547;42.672;23.230;2023-06-22T10:02:17;10.53;;;9.20;;
10987;SDS011;5547;42.672;23.230;2023-06-22T10:05:17;10.23;;;9.20;;
10987;SDS011;5547;42.672;23.230;2023-06-22T10:08:18;9.37;;;8.47;;
10987;SDS011;5547;42.672;23.230;2023-06-22T10:11:18;8.97;;;8.07;;
10987;SDS011;5547;42.672;23.230;2023-06-22T10:14:19;10.33;;;9.33;;
10987;SDS011;5547;42.672;23.230;2023-06-22T10:17:19;9.57;;;8.67;;
10987;SDS011;5547;42.672;23.230;2023-06-22T10:20:19;9.77;;;8.87;;
10987;SDS011;5547;42.672;23.230;2023-06-22T10:23:22;9.70;;;8.80;;
10987;SDS011;5547;42.672;23.230;2023-06-22T10:26:22;9.50;;;8.67;;
10987;SDS011;5547;42.672;23.230;2023-06-22T10:29:22;9.63;;;8.73;;
10987;SDS011;5547;42.672;23.230;2023-06-22T10:32:23;9.17;;;8.27;;
10987;SDS011;5547;42.672;23.230;2023-06-22T10:35:31;9.00;;;8.18;;
10987;SDS011;5547;42.672;23.230;2023-06-22T10:38:36;8.52;;;7.63;;
10987;SDS011;5547;42.672;23.230;2023-06-22T10:41:48;8.75;;;7.85;;
10987;SDS011;5547;42.672;23.230;2023-06-22T10:44:50;9.35;;;8.38;;
10987;SDS011;5547;42.672;23.230;2023-06-22T10:47:50;8.83;;;8.00;;
10987;SDS011;5547;42.672;23.230;2023-06-22T10:50:54;9.80;;;8.43;;
10987;SDS011;5547;42.672;23.230;2023-06-22T10:53:54;10.13;;;9.13;;
10987;SDS011;5547;42.672;23.230;2023-06-22T10:56:55;8.95;;;8.15;;
10987;SDS011;5547;42.672;23.230;2023-06-22T10:59:57;9.18;;;8.10;;
10987;SDS011;5547;42.672;23.230;2023-06-22T11:03:00;8.60;;;7.78;;
10987;SDS011;5547;42.672;23.230;2023-06-22T11:06:00;9.70;;;8.70;;
10987;SDS011;5547;42.672;23.230;2023-06-22T11:09:01;8.67;;;7.80;;
10987;SDS011;5547;42.672;23.230;2023-06-22T11:12:11;9.15;;;8.30;;
10987;SDS011;5547;42.672;23.230;2023-06-22T11:15:11;9.45;;;8.50;;
10987;SDS011;5547;42.672;23.230;2023-06-22T11:18:12;8.50;;;7.70;;
10987;SDS011;5547;42.672;23.230;2023-06-22T11:21:12;8.33;;;7.50;;
10987;SDS011;5547;42.672;23.230;2023-06-22T11:24:13;8.97;;;7.87;;
10987;SDS011;5547;42.672;23.230;2023-06-22T11:27:13;9.20;;;8.33;;
10987;SDS011;5547;42.672;23.230;2023-06-22T11:30:14;9.60;;;8.70;;
10987;SDS011;5547;42.672;23.230;2023-06-22T11:33:14;9.90;;;8.93;;
10987;SDS011;5547;42.672;23.230;2023-06-22T11:36:15;9.00;;;8.17;;
10987;SDS011;5547;42.672;23.230;2023-06-22T11:39:15;9.27;;;8.37;;
10987;SDS011;5547;42.672;23.230;2023-06-22T11:42:16;8.97;;;8.17;;
10987;SDS011;5547;42.672;23.230;2023-06-22T11:45:16;8.93;;;8.03;;
10987;SDS011;5547;42.672;23.230;2023-06-22T11:48:18;9.45;;;8.43;;
10987;SDS011;5547;42.672;23.230;2023-06-22T11:51:18;9.33;;;8.17;;
10987;SDS011;5547;42.672;23.230;2023-06-22T11:54:18;10.73;;;8.50;;
10987;SDS011;5547;42.672;23.230;2023-06-22T11:57:19;10.47;;;8.87;;
10987;SDS011;5547;42.672;23.230;2023-06-22T12:00:19;9.43;;;8.47;;
10987;SDS011;5547;42.672;23.230;2023-06-22T12:03:20;9.63;;;8.73;;
10987;SDS011;5547;42.672;23.230;2023-06-22T12:06:21;10.13;;;9.10;;
10987;SDS011;5547;42.672;23.230;2023-06-22T12:09:21;11.10;;;9.90;;
10987;SDS011;5547;42.672;23.230;2023-06-22T12:12:22;11.20;;;9.97;;
10987;SDS011;5547;42.672;23.230;2023-06-22T12:15:22;12.53;;;10.70;;
10987;SDS011;5547;42.672;23.230;2023-06-22T12:18:23;11.57;;;10.37;;
10987;SDS011;5547;42.672;23.230;2023-06-22T12:21:24;11.40;;;10.23;;
10987;SDS011;5547;42.672;23.230;2023-06-22T12:24:25;12.03;;;10.53;;
10987;SDS011;5547;42.672;23.230;2023-06-22T12:27:25;11.77;;;10.30;;
10987;SDS011;5547;42.672;23.230;2023-06-22T12:30:26;12.10;;;10.80;;
10987;SDS011;5547;42.672;23.230;2023-06-22T12:33:26;15.77;;;11.35;;
10987;SDS011;5547;42.672;23.230;2023-06-22T12:36:27;15.55;;;10.02;;
10987;SDS011;5547;42.672;23.230;2023-06-22T12:39:28;16.20;;;9.53;;
10987;SDS011;5547;42.672;23.230;2023-06-22T12:42:28;18.13;;;9.57;;
10987;SDS011;5547;42.672;23.230;2023-06-22T12:45:29;17.02;;;10.80;;
10987;SDS011;5547;42.672;23.230;2023-06-22T12:48:33;17.05;;;11.43;;
10987;SDS011;5547;42.672;23.230;2023-06-22T12:51:39;12.25;;;9.55;;
10987;SDS011;5547;42.672;23.230;2023-06-22T12:54:40;12.82;;;9.48;;
10987;SDS011;5547;42.672;23.230;2023-06-22T12:57:40;14.73;;;10.83;;
10987;SDS011;5547;42.672;23.230;2023-06-22T13:00:41;11.20;;;9.43;;
10987;SDS011;5547;42.672;23.230;2023-06-22T13:03:41;12.57;;;9.80;;
10987;SDS011;5547;42.672;23.230;2023-06-22T13:06:42;10.63;;;8.60;;
10987;SDS011;5547;42.672;23.230;2023-06-22T13:09:43;10.57;;;9.45;;
10987;SDS011;5547;42.672;23.230;2023-06-22T13:12:46;11.05;;;9.70;;
10987;SDS011;5547;42.672;23.230;2023-06-22T13:15:47;10.60;;;8.83;;
10987;SDS011;5547;42.672;23.230;2023-06-22T13:18:47;10.67;;;8.37;;
10987;SDS011;5547;42.672;23.230;2023-06-22T13:21:48;11.90;;;9.52;;
10987;SDS011;5547;42.672;23.230;2023-06-22T13:24:48;14.43;;;10.77;;
10987;SDS011;5547;42.672;23.230;2023-06-22T13:27:49;12.27;;;9.90;;
10987;SDS011;5547;42.672;23.230;2023-06-22T13:30:49;14.00;;;10.70;;
10987;SDS011;5547;42.672;23.230;2023-06-22T13:33:50;13.77;;;10.97;;
10987;SDS011;5547;42.672;23.230;2023-06-22T13:36:52;14.52;;;11.45;;
10987;SDS011;5547;42.672;23.230;2023-06-22T13:39:52;15.50;;;11.93;;
10987;SDS011;5547;42.672;23.230;2023-06-22T13:42:56;16.42;;;12.82;;
10987;SDS011;5547;42.672;23.230;2023-06-22T13:45:57;15.75;;;12.23;;
10987;SDS011;5547;42.672;23.230;2023-06-22T13:48:58;13.73;;;11.00;;
10987;SDS011;5547;42.672;23.230;2023-06-22T13:51:59;13.23;;;11.05;;
10987;SDS011;5547;42.672;23.230;2023-06-22T13:55:00;13.70;;;11.75;;
10987;SDS011;5547;42.672;23.230;2023-06-22T13:58:00;14.63;;;11.77;;
10987;SDS011;5547;42.672;23.230;2023-06-22T14:01:01;14.70;;;11.60;;
10987;SDS011;5547;42.672;23.230;2023-06-22T14:04:02;14.95;;;12.70;;
10987;SDS011;5547;42.672;23.230;2023-06-22T14:07:03;15.82;;;13.45;;
10987;SDS011;5547;42.672;23.230;2023-06-22T14:10:03;16.75;;;14.00;;
10987;SDS011;5547;42.672;23.230;2023-06-22T14:13:12;15.47;;;12.47;;
10987;SDS011;5547;42.672;23.230;2023-06-22T14:16:13;14.82;;;11.98;;
10987;SDS011;5547;42.672;23.230;2023-06-22T14:19:18;13.77;;;12.37;;
10987;SDS011;5547;42.672;23.230;2023-06-22T14:22:21;14.15;;;12.13;;
10987;SDS011;5547;42.672;23.230;2023-06-22T14:25:22;15.60;;;11.60;;
10987;SDS011;5547;42.672;23.230;2023-06-22T14:28:22;12.70;;;11.27;;
10987;SDS011;5547;42.672;23.230;2023-06-22T14:31:28;12.80;;;11.20;;
10987;SDS011;5547;42.672;23.230;2023-06-22T14:34:33;13.30;;;11.40;;
10987;SDS011;5547;42.672;23.230;2023-06-22T14:37:39;13.40;;;10.80;;
10987;SDS011;5547;42.672;23.230;2023-06-22T14:43:58;13.48;;;12.07;;
10987;SDS011;5547;42.672;23.230;2023-06-22T14:46:58;15.20;;;11.70;;
10987;SDS011;5547;42.672;23.230;2023-06-22T14:49:59;13.00;;;11.70;;
10987;SDS011;5547;42.672;23.230;2023-06-22T14:53:00;13.20;;;11.80;;
10987;SDS011;5547;42.672;23.230;2023-06-22T14:56:00;14.10;;;11.37;;
10987;SDS011;5547;42.672;23.230;2023-06-22T14:59:04;13.20;;;11.20;;
10987;SDS011;5547;42.672;23.230;2023-06-22T15:02:04;12.80;;;11.50;;
10987;SDS011;5547;42.672;23.230;2023-06-22T15:05:05;13.57;;;11.85;;
10987;SDS011;5547;42.672;23.230;2023-06-22T15:08:06;12.52;;;11.27;;
10987;SDS011;5547;42.672;23.230;2023-06-22T15:11:06;12.60;;;11.30;;
10987;SDS011;5547;42.672;23.230;2023-06-22T15:14:07;12.87;;;10.93;;
10987;SDS011;5547;42.672;23.230;2023-06-22T15:17:08;13.38;;;12.05;;
10987;SDS011;5547;42.672;23.230;2023-06-22T15:20:14;13.55;;;11.48;;
10987;SDS011;5547;42.672;23.230;2023-06-22T15:23:14;14.63;;;12.15;;
10987;SDS011;5547;42.672;23.230;2023-06-22T15:26:15;12.90;;;11.33;;
10987;SDS011;5547;42.672;23.230;2023-06-22T15:29:15;11.33;;;10.23;;
10987;SDS011;5547;42.672;23.230;2023-06-22T15:32:16;10.60;;;9.43;;
10987;SDS011;5547;42.672;23.230;2023-06-22T15:35:16;11.43;;;10.13;;
10987;SDS011;5547;42.672;23.230;2023-06-22T15:38:18;9.63;;;8.63;;
10987;SDS011;5547;42.672;23.230;2023-06-22T15:41:18;9.82;;;8.82;;
10987;SDS011;5547;42.672;23.230;2023-06-22T15:44:19;10.73;;;8.60;;
10987;SDS011;5547;42.672;23.230;2023-06-22T15:47:20;10.07;;;8.95;;
10987;SDS011;5547;42.672;23.230;2023-06-22T15:50:22;9.23;;;8.30;;
10987;SDS011;5547;42.672;23.230;2023-06-22T15:53:22;9.70;;;8.70;;
10987;SDS011;5547;42.672;23.230;2023-06-22T15:56:23;9.63;;;8.40;;
10987;SDS011;5547;42.672;23.230;2023-06-22T15:59:24;10.40;;;9.37;;
10987;SDS011;5547;42.672;23.230;2023-06-22T16:02:25;11.63;;;10.43;;
10987;SDS011;5547;42.672;23.230;2023-06-22T16:05:26;11.25;;;10.10;;
10987;SDS011;5547;42.672;23.230;2023-06-22T16:08:27;11.68;;;10.57;;
10987;SDS011;5547;42.672;23.230;2023-06-22T16:11:30;12.60;;;11.13;;
10987;SDS011;5547;42.672;23.230;2023-06-22T16:14:31;13.30;;;11.77;;
10987;SDS011;5547;42.672;23.230;2023-06-22T16:17:32;13.95;;;12.35;;
10987;SDS011;5547;42.672;23.230;2023-06-22T16:20:38;16.30;;;14.63;;
10987;SDS011;5547;42.672;23.230;2023-06-22T16:23:38;16.20;;;14.37;;
10987;SDS011;5547;42.672;23.230;2023-06-22T16:26:39;14.83;;;12.27;;
10987;SDS011;5547;42.672;23.230;2023-06-22T16:29:41;12.45;;;11.25;;
10987;SDS011;5547;42.672;23.230;2023-06-22T16:32:54;12.83;;;11.53;;
10987;SDS011;5547;42.672;23.230;2023-06-22T16:35:58;12.57;;;11.38;;
10987;SDS011;5547;42.672;23.230;2023-06-22T16:38:58;12.93;;;11.55;;
10987;SDS011;5547;42.672;23.230;2023-06-22T16:41:59;16.73;;;13.88;;
10987;SDS011;5547;42.672;23.230;2023-06-22T16:45:00;15.00;;;13.27;;
10987;SDS011;5547;42.672;23.230;2023-06-22T16:48:01;14.85;;;13.35;;
10987;SDS011;5547;42.672;23.230;2023-06-22T16:51:01;12.27;;;10.90;;
10987;SDS011;5547;42.672;23.230;2023-06-22T16:54:02;11.30;;;10.10;;
10987;SDS011;5547;42.672;23.230;2023-06-22T16:57:02;12.10;;;10.73;;
10987;SDS011;5547;42.672;23.230;2023-06-22T17:00:05;12.05;;;10.60;;
10987;SDS011;5547;42.672;23.230;2023-06-22T17:03:10;12.43;;;11.23;;
10987;SDS011;5547;42.672;23.230;2023-06-22T17:06:15;12.20;;;10.83;;
10987;SDS011;5547;42.672;23.230;2023-06-22T17:09:16;12.85;;;11.18;;
10987;SDS011;5547;42.672;23.230;2023-06-22T17:12:17;12.20;;;10.90;;
10987;SDS011;5547;42.672;23.230;2023-06-22T17:15:22;12.97;;;11.33;;
10987;SDS011;5547;42.672;23.230;2023-06-22T17:18:24;13.27;;;11.95;;
10987;SDS011;5547;42.672;23.230;2023-06-22T17:21:26;12.05;;;10.43;;
10987;SDS011;5547;42.672;23.230;2023-06-22T17:24:27;11.93;;;10.73;;
10987;SDS011;5547;42.672;23.230;2023-06-22T17:27:28;14.90;;;11.80;;
10987;SDS011;5547;42.672;23.230;2023-06-22T17:30:29;12.88;;;10.90;;
10987;SDS011;5547;42.672;23.230;2023-06-22T17:33:30;13.38;;;11.98;;
10987;SDS011;5547;42.672;23.230;2023-06-22T17:36:31;13.85;;;12.35;;
10987;SDS011;5547;42.672;23.230;2023-06-22T17:39:32;13.53;;;12.03;;
10987;SDS011;5547;42.672;23.230;2023-06-22T17:42:33;13.87;;;11.83;;
10987;SDS011;5547;42.672;23.230;2023-06-22T17:45:40;13.38;;;11.38;;
10987;SDS011;5547;42.672;23.230;2023-06-22T17:48:45;16.05;;;12.52;;
10987;SDS011;5547;42.672;23.230;2023-06-22T17:51:50;14.52;;;12.95;;
10987;SDS011;5547;42.672;23.230;2023-06-22T17:54:51;16.42;;;13.35;;
10987;SDS011;5547;42.672;23.230;2023-06-22T17:57:54;17.33;;;15.47;;
10987;SDS011;5547;42.672;23.230;2023-06-22T18:00:56;19.85;;;16.08;;